Airfield :
LOGIN :

Register | Disclaimer

   EN    FR    IT 

 










Legend :    VFR   Marginal VFR   IFR   Intensive IFR   Very Intensive IFR
Visi :
Ceiling :
>= 8 km
>= 3000ft
5 to 8 km
1000 to 3000 ft
1500m to 5 km
500 to 1000 ft
800 to 1500m
200 to 500 ft
< 800m
< 200 ft
Symbols :   Thunderstorms  Fog  Heavy snow  Heavy precipitations  Wind > 20 kt
SIGMETs :     Misc.  Thunderstorms  Icing  Turbulence  Mountain Waves  Volcanic Ashes






- Airport Elevation : 233 ft
- IATA code : REU


LERS - Reus Tarragona

CURRENT METAR :
  • 051900Z 21006KT 170V230 CAVOK 25/21 Q1017

EXPIRED METARs :
  • 051830Z 20007KT 160V230 CAVOK 26/22 Q1017
  • 051800Z 21007KT 180V240 CAVOK 27/22 Q1017
  • 051730Z 21009KT 170V250 CAVOK 27/21 Q1017
  • 051700Z 20008KT 140V240 CAVOK 27/20 Q1017
  • 051630Z 20008KT 150V230 CAVOK 28/20 Q1017

TAF TAF LERS
Valid from the 05 at 15:00 until the 06 at 15:00 UTC


051400Z 0515/0615 20010KT 9999 FEW040 TX36/0613Z TN20/0605Z
BECMG 0518/0520 VRB04KT
BECMG 0606/0608 30010KT



MET'MAP, your aeronautical weather chart ! - Copyright ORBIFLY December 2007 - Disclaimer

ORBIFLY MET'MAP TEAM :

Programming & Development : Alexandra Zaïnal
Concept & original design : Baudouin d'Aumeries
Assistance for programming : Marc-Olivier Méhu
Technical & hardware support : Manuel Goepfert

Contact : metmap@orbifly.com




SOURCES & CREDITS :

   NOAA